createdAt,value
2023-04-14T00:00:15.889Z,18.80
2023-04-14T00:03:05.131Z,20.90
2023-04-14T00:05:34.957Z,19.10
2023-04-14T00:08:03.453Z,18.90
2023-04-14T00:10:31.630Z,15.30
2023-04-14T00:13:01.554Z,12.80
2023-04-14T00:15:29.713Z,19.90
2023-04-14T00:17:57.960Z,17.20
2023-04-14T00:20:26.230Z,18.60
2023-04-14T00:22:54.345Z,18.60
2023-04-14T00:25:22.616Z,15.30
2023-04-14T00:27:51.075Z,21.00
2023-04-14T00:30:19.132Z,18.70
2023-04-14T00:32:47.345Z,18.30
2023-04-14T00:35:15.738Z,12.80
2023-04-14T00:37:43.986Z,18.10
2023-04-14T00:40:12.314Z,16.80
2023-04-14T00:42:47.601Z,17.90
2023-04-14T00:45:15.813Z,15.70
2023-04-14T00:47:50.775Z,16.80
2023-04-14T00:50:21.081Z,19.70
2023-04-14T00:52:50.449Z,19.60
2023-04-14T00:55:22.427Z,18.40
2023-04-14T00:57:51.027Z,17.20
2023-04-14T01:00:19.862Z,21.70
2023-04-14T01:02:48.276Z,13.70
2023-04-14T01:05:16.866Z,20.20
2023-04-14T01:07:48.449Z,22.00
2023-04-14T01:10:16.994Z,19.30
2023-04-14T01:12:54.563Z,11.90
2023-04-14T01:15:39.217Z,14.10
2023-04-14T01:18:28.644Z,19.30
2023-04-14T01:21:16.934Z,23.80
2023-04-14T01:24:14.165Z,24.40
2023-04-14T01:26:44.028Z,26.40
2023-04-14T01:29:48.286Z,20.20
2023-04-14T01:32:22.639Z,21.50
2023-04-14T01:34:54.378Z,20.50
2023-04-14T01:37:34.206Z,19.70
2023-04-14T01:40:11.718Z,21.20
2023-04-14T01:42:46.616Z,21.10
2023-04-14T01:45:27.346Z,25.50
2023-04-14T01:47:56.117Z,26.60
2023-04-14T01:50:27.419Z,24.20
2023-04-14T01:52:56.451Z,22.40
2023-04-14T01:55:29.474Z,19.80
2023-04-14T01:57:59.011Z,18.10
2023-04-14T02:00:28.186Z,15.20
2023-04-14T02:02:57.398Z,16.10
2023-04-14T02:05:28.454Z,19.20
2023-04-14T02:07:59.912Z,22.10
2023-04-14T02:10:29.239Z,18.50
2023-04-14T02:12:58.610Z,24.30
2023-04-14T02:15:28.821Z,15.90
2023-04-14T02:17:58.655Z,12.60
2023-04-14T02:20:28.901Z,12.00
2023-04-14T02:22:57.065Z,14.50
2023-04-14T02:25:29.682Z,13.90
2023-04-14T02:33:12.639Z,11.60
2023-04-14T02:36:02.133Z,13.20
2023-04-14T02:38:36.984Z,10.40
2023-04-14T02:41:32.946Z,9.30
2023-04-14T02:44:25.646Z,15.70
2023-04-14T02:47:15.997Z,12.80
2023-04-14T02:49:48.517Z,9.00
2023-04-14T02:52:22.021Z,12.70
2023-04-14T02:54:52.526Z,14.20
2023-04-14T02:57:22.347Z,10.30
2023-04-14T02:59:52.857Z,14.80
2023-04-14T03:02:22.532Z,9.80
2023-04-14T03:04:59.694Z,9.70
2023-04-14T03:07:39.332Z,13.20
2023-04-14T03:10:10.315Z,11.30
2023-04-14T03:12:40.974Z,11.50
2023-04-14T03:15:10.989Z,12.20
2023-04-14T03:17:40.620Z,12.90
2023-04-14T03:20:11.063Z,60.60
2023-04-14T03:22:41.869Z,15.80
2023-04-14T03:25:12.597Z,13.90
2023-04-14T03:27:44.160Z,18.20
2023-04-14T03:30:14.777Z,17.40
2023-04-14T03:32:46.443Z,20.90
2023-04-14T03:35:17.380Z,21.50
2023-04-14T03:37:48.206Z,12.70
2023-04-14T03:40:17.740Z,17.40
2023-04-14T03:42:49.068Z,14.70
2023-04-14T03:45:21.296Z,15.70
2023-04-14T03:47:53.677Z,13.00
2023-04-14T03:50:25.856Z,10.90
2023-04-14T03:52:55.342Z,12.00
2023-04-14T03:55:24.883Z,16.80
2023-04-14T03:57:57.866Z,19.30
2023-04-14T04:00:28.113Z,18.80
2023-04-14T04:02:58.431Z,16.20
2023-04-14T04:05:28.621Z,11.10
2023-04-14T04:08:03.850Z,10.90
2023-04-14T04:10:36.460Z,10.50
2023-04-14T04:15:39.863Z,25.50
2023-04-14T04:18:10.867Z,16.00
2023-04-14T04:20:41.294Z,111.70
2023-04-14T04:23:11.217Z,85.40
2023-04-14T04:25:41.729Z,98.90
2023-04-14T04:28:17.107Z,49.50
2023-04-14T04:30:47.499Z,21.30
2023-04-14T04:33:17.123Z,15.90
2023-04-14T04:35:46.978Z,18.50
2023-04-14T04:38:15.272Z,11.40
2023-04-14T04:40:45.575Z,12.00
2023-04-14T04:43:25.781Z,11.70
2023-04-14T04:46:19.780Z,55.30
2023-04-14T04:48:52.759Z,157.40
2023-04-14T04:51:21.545Z,101.90
2023-04-14T04:53:49.726Z,29.30
2023-04-14T04:56:17.878Z,16.00
2023-04-14T04:58:48.452Z,20.40
2023-04-14T05:01:19.576Z,12.80
2023-04-14T05:03:50.645Z,13.40
2023-04-14T05:06:18.821Z,13.30
2023-04-14T05:08:47.053Z,10.90
2023-04-14T05:11:15.190Z,7.40
2023-04-14T05:13:43.366Z,10.00
2023-04-14T05:16:17.349Z,9.90
2023-04-14T05:18:45.608Z,11.90
2023-04-14T05:21:14.564Z,11.50
2023-04-14T05:23:44.430Z,14.80
2023-04-14T05:26:38.937Z,10.50
2023-04-14T05:29:03.085Z,16.50
2023-04-14T05:31:31.581Z,9.30
2023-04-14T05:34:00.032Z,7.70
2023-04-14T05:36:34.350Z,11.30
2023-04-14T05:39:02.542Z,9.00
2023-04-14T05:41:30.694Z,9.10
2023-04-14T05:43:58.989Z,11.50
2023-04-14T05:46:27.288Z,8.30
2023-04-14T05:48:55.567Z,9.60
2023-04-14T05:51:23.727Z,9.10
2023-04-14T05:53:51.751Z,11.00
2023-04-14T05:56:20.055Z,9.60
2023-04-14T05:58:48.291Z,7.50
2023-04-14T06:01:16.514Z,6.90
2023-04-14T06:03:45.178Z,9.90
2023-04-14T06:06:13.676Z,8.60
2023-04-14T06:08:49.285Z,6.30
2023-04-14T06:11:17.678Z,8.30
2023-04-14T06:13:45.850Z,11.20
2023-04-14T06:16:13.987Z,7.30
2023-04-14T06:18:42.143Z,6.10
2023-04-14T06:21:10.382Z,9.70
2023-04-14T06:23:38.472Z,8.70
2023-04-14T06:26:06.809Z,8.70
2023-04-14T06:28:34.925Z,8.10
2023-04-14T06:31:03.093Z,10.90
2023-04-14T06:33:31.853Z,6.90
2023-04-14T06:36:01.821Z,16.70
2023-04-14T06:38:29.977Z,12.30
2023-04-14T06:40:58.136Z,19.60
2023-04-14T06:43:28.397Z,11.50
2023-04-14T06:45:56.911Z,12.60
2023-04-14T06:48:25.459Z,9.80
2023-04-14T06:50:57.618Z,7.50
2023-04-14T06:53:28.169Z,10.00
2023-04-14T06:55:59.760Z,6.00
2023-04-14T06:58:29.286Z,8.40
2023-04-14T07:00:59.009Z,13.50
2023-04-14T07:03:29.072Z,12.20
2023-04-14T07:06:09.416Z,9.10
2023-04-14T07:08:38.849Z,18.70
2023-04-14T07:11:09.669Z,6.10
2023-04-14T07:13:39.255Z,8.80
2023-04-14T07:16:08.423Z,8.10
2023-04-14T07:18:36.712Z,10.40
2023-04-14T07:21:05.247Z,6.50
2023-04-14T07:23:33.852Z,7.20
2023-04-14T07:26:02.118Z,9.20
2023-04-14T07:28:30.207Z,7.40
2023-04-14T07:31:00.545Z,8.60
2023-04-14T07:33:31.395Z,7.00
2023-04-14T07:36:03.398Z,11.00
2023-04-14T07:38:33.266Z,6.60
2023-04-14T07:41:06.977Z,5.30
2023-04-14T07:43:42.706Z,8.80
2023-04-14T07:46:11.024Z,7.20
2023-04-14T07:48:42.785Z,6.00
2023-04-14T07:51:12.344Z,8.30
2023-04-14T07:53:43.479Z,6.60
2023-04-14T07:56:12.861Z,7.40
2023-04-14T07:58:41.032Z,10.80
2023-04-14T08:01:09.238Z,8.60
2023-04-14T08:03:38.044Z,11.90
2023-04-14T08:06:12.202Z,11.80
2023-04-14T08:08:42.900Z,9.10
2023-04-14T08:11:11.026Z,5.70
2023-04-14T08:13:39.214Z,6.90
2023-04-14T08:16:07.492Z,9.00
2023-04-14T08:18:37.447Z,7.80
2023-04-14T08:21:05.856Z,6.90
2023-04-14T08:23:34.409Z,8.90
2023-04-14T08:26:02.982Z,7.10
2023-04-14T08:28:31.332Z,8.00
2023-04-14T08:30:59.594Z,8.40
2023-04-14T08:33:27.825Z,9.00
2023-04-14T08:35:59.427Z,6.10
2023-04-14T08:38:29.461Z,6.80
2023-04-14T08:41:04.237Z,7.70
2023-04-14T08:43:32.584Z,7.30
2023-04-14T08:46:02.197Z,9.00
2023-04-14T08:48:32.126Z,8.10
2023-04-14T08:51:22.444Z,9.50
2023-04-14T08:53:56.568Z,5.90
2023-04-14T08:56:30.503Z,11.90
2023-04-14T08:59:02.544Z,8.90
2023-04-14T09:01:33.101Z,10.60
2023-04-14T09:04:08.617Z,10.60
2023-04-14T09:06:37.468Z,7.80
2023-04-14T09:09:11.093Z,7.10
2023-04-14T09:11:41.098Z,10.80
2023-04-14T09:14:10.203Z,7.20
2023-04-14T09:16:39.172Z,6.60
2023-04-14T09:19:08.669Z,6.30
2023-04-14T09:21:51.608Z,6.30
2023-04-14T09:24:34.177Z,8.80
2023-04-14T09:27:05.323Z,9.40
2023-04-14T09:29:33.988Z,7.30
2023-04-14T09:32:02.767Z,6.00
2023-04-14T09:34:31.162Z,6.90
2023-04-14T09:37:00.272Z,7.30
2023-04-14T09:39:28.906Z,9.00
2023-04-14T09:41:57.285Z,7.20
2023-04-14T09:44:25.596Z,6.00
2023-04-14T09:47:02.314Z,7.40
2023-04-14T09:49:33.459Z,11.50
2023-04-14T09:52:08.273Z,7.70
2023-04-14T09:54:36.712Z,12.80
2023-04-14T09:57:05.097Z,7.10
2023-04-14T09:59:37.771Z,5.50
2023-04-14T10:02:08.802Z,6.30
2023-04-14T10:04:41.981Z,5.80
2023-04-14T10:07:12.392Z,6.80
2023-04-14T10:09:40.924Z,7.60
2023-04-14T10:12:18.324Z,7.80
2023-04-14T10:14:46.563Z,5.60
2023-04-14T10:17:26.619Z,5.90
2023-04-14T10:19:56.958Z,5.50
2023-04-14T10:22:27.900Z,6.20
2023-04-14T10:24:58.849Z,6.40
2023-04-14T10:27:30.213Z,5.70
2023-04-14T10:29:59.501Z,5.70
2023-04-14T10:32:33.733Z,7.70
2023-04-14T10:35:15.009Z,9.60
2023-04-14T10:37:51.651Z,6.90
2023-04-14T10:40:25.817Z,6.60
2023-04-14T10:42:57.467Z,10.00
2023-04-14T10:45:26.038Z,7.40
2023-04-14T10:47:56.454Z,7.00
2023-04-14T10:50:25.541Z,6.80
2023-04-14T10:52:56.229Z,10.40
2023-04-14T10:55:31.261Z,9.20
2023-04-14T10:58:06.578Z,10.30
2023-04-14T11:00:38.710Z,10.70
2023-04-14T11:03:17.046Z,5.10
2023-04-14T11:05:49.132Z,7.30
2023-04-14T11:08:27.501Z,6.90
2023-04-14T11:11:06.587Z,7.60
2023-04-14T11:13:35.147Z,7.30
2023-04-14T11:16:07.812Z,6.10
2023-04-14T11:18:45.746Z,11.50
2023-04-14T11:21:17.293Z,7.30
2023-04-14T11:23:45.826Z,8.10
2023-04-14T11:26:16.805Z,9.70
2023-04-14T11:28:46.987Z,6.60
2023-04-14T11:31:17.228Z,6.20
2023-04-14T11:33:45.575Z,6.40
2023-04-14T11:36:14.084Z,14.60
2023-04-14T11:38:43.497Z,8.50
2023-04-14T11:41:15.793Z,8.60
2023-04-14T11:43:47.140Z,20.60
2023-04-14T11:46:18.207Z,8.60
2023-04-14T11:48:46.312Z,6.90
2023-04-14T11:51:14.781Z,6.30
2023-04-14T11:53:43.439Z,11.20
2023-04-14T11:56:13.296Z,8.50
2023-04-14T11:58:42.065Z,11.80
2023-04-14T12:01:15.088Z,6.20
2023-04-14T12:03:43.803Z,6.90
2023-04-14T12:06:12.065Z,7.90
2023-04-14T12:08:40.219Z,11.30
2023-04-14T12:11:15.430Z,10.30
2023-04-14T12:13:45.326Z,9.70
2023-04-14T12:16:15.341Z,8.40
2023-04-14T12:18:45.659Z,11.40
2023-04-14T12:21:18.662Z,7.90
2023-04-14T12:23:51.515Z,9.60
2023-04-14T12:26:20.484Z,12.80
2023-04-14T12:29:00.961Z,8.50
2023-04-14T12:31:32.158Z,6.60
2023-04-14T12:34:03.559Z,7.90
2023-04-14T12:36:47.922Z,7.60
2023-04-14T12:39:17.953Z,8.00
2023-04-14T12:41:47.047Z,8.40
2023-04-14T12:44:20.764Z,6.00
2023-04-14T12:46:53.852Z,7.60
2023-04-14T12:49:33.205Z,37.80
2023-04-14T12:52:01.433Z,8.50
2023-04-14T12:54:49.182Z,6.90
2023-04-14T12:57:19.913Z,6.70
2023-04-14T12:59:48.108Z,8.60
2023-04-14T13:02:18.078Z,7.00
2023-04-14T13:04:46.501Z,11.10
2023-04-14T13:07:14.779Z,31.40
2023-04-14T13:09:43.829Z,11.50
2023-04-14T13:12:12.314Z,11.20
2023-04-14T13:14:40.592Z,10.50
2023-04-14T13:17:08.795Z,9.90
2023-04-14T13:19:37.109Z,14.80
2023-04-14T13:22:05.540Z,13.60
2023-04-14T13:24:33.679Z,11.70
2023-04-14T13:27:02.049Z,7.50
2023-04-14T13:29:35.605Z,8.20
2023-04-14T13:32:08.125Z,13.30
2023-04-14T13:34:46.634Z,10.10
2023-04-14T13:37:14.871Z,8.80
2023-04-14T13:39:43.056Z,54.20
2023-04-14T13:42:11.298Z,12.70
2023-04-14T13:44:39.682Z,6.50
2023-04-14T13:47:09.064Z,8.50
2023-04-14T13:49:37.392Z,11.80
2023-04-14T13:52:05.871Z,9.60
2023-04-14T13:54:35.434Z,9.30
2023-04-14T13:57:04.019Z,9.50
2023-04-14T13:59:33.389Z,9.00
2023-04-14T14:02:01.655Z,12.50
2023-04-14T14:04:30.064Z,8.80
2023-04-14T14:06:58.213Z,10.10
2023-04-14T14:09:26.595Z,22.40
2023-04-14T14:11:54.745Z,8.90
2023-04-14T14:14:28.838Z,6.90
2023-04-14T14:16:57.049Z,8.30
2023-04-14T14:19:25.243Z,10.80
2023-04-14T14:21:53.496Z,9.80
2023-04-14T14:24:21.766Z,9.20
2023-04-14T14:26:49.909Z,9.00
2023-04-14T14:29:17.976Z,11.40
2023-04-14T14:31:46.192Z,7.60
2023-04-14T14:34:14.603Z,7.80
2023-04-14T14:36:43.923Z,7.80
2023-04-14T14:39:11.974Z,4.20
2023-04-14T14:41:40.423Z,6.20
2023-04-14T14:44:08.521Z,8.70
2023-04-14T14:46:36.671Z,6.60
2023-04-14T14:49:04.889Z,6.00
2023-04-14T14:51:32.990Z,7.70
2023-04-14T14:54:09.271Z,7.60
2023-04-14T14:56:38.216Z,8.80
2023-04-14T14:59:06.504Z,11.60
2023-04-14T15:01:35.509Z,6.70
2023-04-14T15:04:06.535Z,7.80
2023-04-14T15:06:35.961Z,8.40
2023-04-14T15:09:05.527Z,8.20
2023-04-14T15:11:36.809Z,9.10
2023-04-14T15:14:09.293Z,10.80
2023-04-14T15:16:37.987Z,6.70
2023-04-14T15:19:06.126Z,5.20
2023-04-14T15:21:34.337Z,8.10
2023-04-14T15:24:02.467Z,5.60
2023-04-14T15:26:31.183Z,5.40
2023-04-14T15:28:59.527Z,5.40
2023-04-14T15:31:27.826Z,5.00
2023-04-14T15:34:00.138Z,4.50
2023-04-14T15:36:29.087Z,7.50
2023-04-14T15:38:57.346Z,6.50
2023-04-14T15:41:26.485Z,6.80
2023-04-14T15:43:55.306Z,3.20
2023-04-14T15:46:24.002Z,8.10
2023-04-14T15:48:52.276Z,4.00
2023-04-14T15:51:20.593Z,3.20
2023-04-14T15:53:48.774Z,6.10
2023-04-14T15:56:26.041Z,4.00
2023-04-14T15:58:54.200Z,5.30
2023-04-14T16:01:22.460Z,4.70
2023-04-14T16:03:52.595Z,7.50
2023-04-14T16:06:21.511Z,6.30
2023-04-14T16:08:49.732Z,4.10
2023-04-14T16:11:18.273Z,4.70
2023-04-14T16:13:46.621Z,2.30
2023-04-14T16:16:16.273Z,4.90
2023-04-14T16:18:44.425Z,5.70
2023-04-14T16:21:12.690Z,5.10
2023-04-14T16:23:41.689Z,4.60
2023-04-14T16:26:09.929Z,6.70
2023-04-14T16:28:37.958Z,10.70
2023-04-14T16:31:06.507Z,12.70
2023-04-14T16:33:34.749Z,7.90
2023-04-14T16:36:07.370Z,7.20
2023-04-14T16:38:35.952Z,5.20
2023-04-14T16:41:04.497Z,6.40
2023-04-14T16:43:32.883Z,8.50
2023-04-14T16:46:05.354Z,9.00
2023-04-14T16:51:09.239Z,6.80
2023-04-14T16:53:38.824Z,16.70
2023-04-14T16:56:07.859Z,14.70
2023-04-14T16:58:37.855Z,4.90
2023-04-14T17:01:07.438Z,4.20
2023-04-14T17:03:35.975Z,7.00
2023-04-14T17:06:04.576Z,10.10
2023-04-14T17:08:34.138Z,8.50
2023-04-14T17:11:02.785Z,3.00
2023-04-14T17:13:31.077Z,3.40
2023-04-14T17:16:08.277Z,5.10
2023-04-14T17:18:38.348Z,2.20
2023-04-14T17:21:07.243Z,5.10
2023-04-14T17:23:37.815Z,5.60
2023-04-14T17:26:06.475Z,4.60
2023-04-14T17:28:35.762Z,3.80
2023-04-14T17:31:12.825Z,6.30
2023-04-14T17:33:43.107Z,7.20
2023-04-14T17:36:15.448Z,9.20
2023-04-14T17:38:44.764Z,12.80
2023-04-14T17:41:13.173Z,14.70
2023-04-14T17:43:41.888Z,13.90
2023-04-14T17:46:11.095Z,18.00
2023-04-14T17:48:39.340Z,14.00
2023-04-14T17:51:07.791Z,11.80
2023-04-14T17:53:36.121Z,15.90
2023-04-14T17:56:06.011Z,12.20
2023-04-14T17:58:34.332Z,13.60
2023-04-14T18:01:02.744Z,11.00
2023-04-14T18:03:31.116Z,18.40
2023-04-14T18:05:59.609Z,24.50
2023-04-14T18:08:27.733Z,26.50
2023-04-14T18:10:58.970Z,22.50
2023-04-14T18:13:28.471Z,23.00
2023-04-14T18:15:56.742Z,18.90
2023-04-14T18:18:25.896Z,49.20
2023-04-14T18:20:54.458Z,20.60
2023-04-14T18:23:22.769Z,15.60
2023-04-14T18:28:33.453Z,18.20
2023-04-14T18:31:01.873Z,14.90
2023-04-14T18:33:30.574Z,9.10
2023-04-14T18:36:00.301Z,56.20
2023-04-14T18:38:28.867Z,152.40
2023-04-14T18:41:04.936Z,61.40
2023-04-14T18:43:33.632Z,23.00
2023-04-14T18:46:05.449Z,46.10
2023-04-14T18:48:35.993Z,44.40
2023-04-14T18:51:04.653Z,64.30
2023-04-14T18:53:32.725Z,48.70
2023-04-14T18:56:01.830Z,23.00
2023-04-14T18:58:30.533Z,30.20
2023-04-14T19:00:58.631Z,33.50
2023-04-14T19:03:27.263Z,31.20
2023-04-14T19:06:02.047Z,27.40
2023-04-14T19:08:30.562Z,17.80
2023-04-14T19:10:59.390Z,19.50
2023-04-14T19:13:27.513Z,20.00
2023-04-14T19:16:08.433Z,16.20
2023-04-14T19:18:36.822Z,22.50
2023-04-14T19:21:05.194Z,17.00
2023-04-14T19:23:33.453Z,24.40
2023-04-14T19:26:02.585Z,16.80
2023-04-14T19:28:30.683Z,16.20
2023-04-14T19:30:58.935Z,18.60
2023-04-14T19:33:27.713Z,15.30
2023-04-14T19:35:55.883Z,20.60
2023-04-14T19:38:25.179Z,22.30
2023-04-14T19:40:54.614Z,20.30
2023-04-14T19:43:23.011Z,19.90
2023-04-14T19:45:57.281Z,16.40
2023-04-14T19:48:25.526Z,14.20
2023-04-14T19:50:54.843Z,21.90
2023-04-14T19:53:24.507Z,23.40
2023-04-14T19:55:55.991Z,18.10
2023-04-14T19:58:26.867Z,18.80
2023-04-14T20:00:58.955Z,19.20
2023-04-14T20:03:27.627Z,17.60
2023-04-14T20:05:57.629Z,19.30
2023-04-14T20:08:28.917Z,14.10
2023-04-14T20:10:57.759Z,11.50
2023-04-14T20:13:30.556Z,12.70
2023-04-14T20:18:28.067Z,15.50
2023-04-14T20:21:00.780Z,12.60
2023-04-14T20:23:29.197Z,17.00
2023-04-14T20:25:57.909Z,12.30
2023-04-14T20:28:26.510Z,17.40
2023-04-14T20:30:55.795Z,18.90
2023-04-14T20:33:24.577Z,12.10
2023-04-14T20:35:54.139Z,20.50
2023-04-14T20:38:23.050Z,19.00
2023-04-14T20:40:51.827Z,18.30
2023-04-14T20:43:20.473Z,18.50
2023-04-14T20:45:50.086Z,15.60
2023-04-14T20:48:18.643Z,14.50
2023-04-14T20:50:51.442Z,13.50
2023-04-14T20:53:22.947Z,15.80
2023-04-14T20:55:51.617Z,18.90
2023-04-14T20:58:19.872Z,24.50
2023-04-14T21:00:48.196Z,21.60
2023-04-14T21:03:17.387Z,18.00
2023-04-14T21:05:46.391Z,20.60
2023-04-14T21:08:14.514Z,26.60
2023-04-14T21:11:16.353Z,17.90
2023-04-14T21:15:28.580Z,27.00
2023-04-14T21:16:24.186Z,26.60
2023-04-14T21:18:54.902Z,23.70
2023-04-14T21:21:23.290Z,20.50
2023-04-14T21:23:51.536Z,19.20
2023-04-14T21:26:19.739Z,33.00
2023-04-14T21:28:47.954Z,20.30
2023-04-14T21:31:16.056Z,19.50
2023-04-14T21:33:44.240Z,22.20
2023-04-14T21:36:12.362Z,20.90
2023-04-14T21:38:40.586Z,18.00
2023-04-14T21:41:09.559Z,15.60
2023-04-14T21:43:38.859Z,16.20
2023-04-14T21:46:07.202Z,16.40
2023-04-14T21:48:35.738Z,18.00
2023-04-14T21:51:04.010Z,20.10
2023-04-14T21:53:32.632Z,19.50
2023-04-14T21:56:10.092Z,26.20
2023-04-14T21:58:40.356Z,20.40
2023-04-14T22:01:11.496Z,19.40
2023-04-14T22:03:41.449Z,18.50
2023-04-14T22:06:12.667Z,18.20
2023-04-14T22:08:41.181Z,20.10
2023-04-14T22:11:09.413Z,17.00
2023-04-14T22:13:37.686Z,16.80
2023-04-14T22:16:06.551Z,11.50
2023-04-14T22:18:35.907Z,11.40
2023-04-14T22:21:04.909Z,16.40
2023-04-14T22:23:33.153Z,13.60
2023-04-14T22:26:02.084Z,14.30
2023-04-14T22:28:30.298Z,12.90
2023-04-14T22:30:58.764Z,12.10
2023-04-14T22:33:27.483Z,17.40
2023-04-14T22:35:55.636Z,11.40
2023-04-14T22:38:23.725Z,16.00
2023-04-14T22:40:52.911Z,16.30
2023-04-14T22:43:21.251Z,21.50
2023-04-14T22:45:49.926Z,16.50
2023-04-14T22:48:18.294Z,18.20
2023-04-14T22:50:47.158Z,14.70
2023-04-14T22:53:15.982Z,15.30
2023-04-14T22:55:57.424Z,13.00
2023-04-14T22:58:26.018Z,10.60
2023-04-14T23:00:54.309Z,8.90
2023-04-14T23:03:23.553Z,12.30
2023-04-14T23:05:52.885Z,11.50
2023-04-14T23:08:21.493Z,13.40
2023-04-14T23:10:49.562Z,11.10
2023-04-14T23:13:17.789Z,11.10
2023-04-14T23:15:46.445Z,10.10
2023-04-14T23:18:14.565Z,11.40
2023-04-14T23:20:43.227Z,7.80
2023-04-14T23:23:12.200Z,12.00
2023-04-14T23:25:41.795Z,11.90
2023-04-14T23:28:12.266Z,12.40
2023-04-14T23:30:46.948Z,11.20
2023-04-14T23:33:15.132Z,11.20
2023-04-14T23:35:43.441Z,9.40
2023-04-14T23:38:11.634Z,12.10
2023-04-14T23:40:40.107Z,12.80
2023-04-14T23:43:09.020Z,12.80
2023-04-14T23:45:37.804Z,17.40
2023-04-14T23:48:06.711Z,11.50
2023-04-14T23:51:02.190Z,12.90
2023-04-14T23:53:25.364Z,13.20
2023-04-14T23:55:53.837Z,11.50
2023-04-14T23:58:26.823Z,9.50
